createdAt,value
2022-09-10T00:02:13.543Z,23.30
2022-09-10T00:04:41.104Z,23.32
2022-09-10T00:07:08.349Z,23.58
2022-09-10T00:09:36.754Z,23.46
2022-09-10T00:12:04.360Z,23.44
2022-09-10T00:14:31.488Z,23.47
2022-09-10T00:16:58.691Z,23.40
2022-09-10T00:19:26.584Z,23.15
2022-09-10T00:21:53.912Z,23.31
2022-09-10T00:24:22.578Z,23.49
2022-09-10T00:26:51.096Z,23.36
2022-09-10T00:29:19.346Z,23.48
2022-09-10T00:31:46.506Z,23.50
2022-09-10T00:34:14.343Z,23.34
2022-09-10T00:36:41.992Z,23.39
2022-09-10T00:39:10.666Z,23.26
2022-09-10T00:41:39.288Z,23.15
2022-09-10T00:44:07.576Z,23.24
2022-09-10T00:46:38.020Z,23.34
2022-09-10T00:49:34.613Z,23.48
2022-09-10T00:52:01.814Z,23.38
2022-09-10T00:54:29.216Z,23.26
2022-09-10T00:56:57.395Z,23.29
2022-09-10T00:59:26.196Z,23.30
2022-09-10T01:01:55.612Z,23.39
2022-09-10T01:04:22.902Z,23.17
2022-09-10T01:06:52.021Z,23.28
2022-09-10T01:09:20.370Z,23.32
2022-09-10T01:12:08.962Z,23.36
2022-09-10T01:14:47.882Z,23.34
2022-09-10T01:17:25.733Z,23.13
2022-09-10T01:19:59.064Z,23.08
2022-09-10T01:22:35.553Z,22.98
2022-09-10T01:25:22.616Z,22.96
2022-09-10T01:27:53.159Z,23.08
2022-09-10T01:30:21.392Z,22.90
2022-09-10T01:32:48.752Z,23.01
2022-09-10T01:35:20.274Z,22.87
2022-09-10T01:37:50.744Z,22.93
2022-09-10T01:40:18.193Z,22.90
2022-09-10T01:42:45.955Z,22.93
2022-09-10T01:45:14.866Z,22.88
2022-09-10T01:47:43.736Z,23.06
2022-09-10T01:50:21.972Z,23.07
2022-09-10T01:52:49.594Z,22.64
2022-09-10T01:55:46.626Z,22.62
2022-09-10T01:58:20.069Z,22.77
2022-09-10T02:00:51.974Z,22.77
2022-09-10T02:03:20.050Z,22.72
2022-09-10T02:05:48.677Z,22.60
2022-09-10T02:08:17.208Z,22.60
2022-09-10T02:10:49.509Z,22.67
2022-09-10T02:13:16.719Z,22.65
2022-09-10T02:15:45.449Z,22.66
2022-09-10T02:18:13.145Z,22.57
2022-09-10T02:20:40.584Z,22.57
2022-09-10T02:23:09.585Z,22.51
2022-09-10T02:25:39.739Z,22.57
2022-09-10T02:28:07.002Z,22.73
2022-09-10T02:30:34.398Z,22.52
2022-09-10T02:33:01.597Z,22.53
2022-09-10T02:35:31.416Z,22.32
2022-09-10T02:37:59.399Z,22.36
2022-09-10T02:40:27.474Z,22.23
2022-09-10T02:42:55.556Z,22.04
2022-09-10T02:45:23.546Z,22.12
2022-09-10T02:47:51.099Z,22.20
2022-09-10T02:50:18.458Z,22.27
2022-09-10T02:52:46.297Z,22.39
2022-09-10T02:55:13.643Z,21.98
2022-09-10T02:57:42.198Z,22.18
2022-09-10T03:00:10.817Z,22.03
2022-09-10T03:02:37.979Z,22.04
2022-09-10T03:05:05.432Z,21.95
2022-09-10T03:07:32.918Z,21.87
2022-09-10T03:10:01.053Z,21.68
2022-09-10T03:12:28.218Z,21.81
2022-09-10T03:14:58.187Z,21.89
2022-09-10T03:17:26.113Z,22.01
2022-09-10T03:19:53.424Z,21.94
2022-09-10T03:22:22.105Z,21.96
2022-09-10T03:24:49.606Z,21.99
2022-09-10T03:27:18.129Z,22.10
2022-09-10T03:29:45.606Z,22.08
2022-09-10T03:32:13.233Z,21.89
2022-09-10T03:34:40.402Z,22.06
2022-09-10T03:37:07.839Z,21.78
2022-09-10T03:39:35.580Z,21.97
2022-09-10T03:42:05.303Z,21.88
2022-09-10T03:44:33.687Z,21.79
2022-09-10T03:47:01.794Z,21.87
2022-09-10T03:49:29.000Z,21.73
2022-09-10T03:51:56.465Z,21.67
2022-09-10T03:54:23.702Z,21.73
2022-09-10T03:56:51.439Z,21.67
2022-09-10T03:59:19.360Z,21.72
2022-09-10T04:01:47.274Z,21.70
2022-09-10T04:04:15.073Z,21.73
2022-09-10T04:06:42.716Z,21.92
2022-09-10T04:09:10.388Z,21.75
2022-09-10T04:11:37.937Z,21.74
2022-09-10T04:14:05.341Z,21.62
2022-09-10T04:16:37.312Z,21.70
2022-09-10T04:19:05.676Z,21.54
2022-09-10T04:21:32.828Z,21.49
2022-09-10T04:24:00.737Z,21.44
2022-09-10T04:26:28.307Z,21.57
2022-09-10T04:28:56.114Z,21.45
2022-09-10T04:31:23.399Z,21.48
2022-09-10T04:33:51.278Z,21.70
2022-09-10T04:36:20.620Z,21.30
2022-09-10T04:38:48.799Z,21.32
2022-09-10T04:41:19.507Z,21.43
2022-09-10T04:43:46.998Z,21.46
2022-09-10T04:46:14.152Z,21.43
2022-09-10T04:48:41.859Z,21.56
2022-09-10T04:51:18.607Z,21.52
2022-09-10T04:53:46.172Z,21.44
2022-09-10T04:56:13.613Z,21.21
2022-09-10T04:58:41.352Z,21.28
2022-09-10T05:01:09.648Z,21.45
2022-09-10T05:03:37.355Z,21.57
2022-09-10T05:06:06.374Z,21.67
2022-09-10T05:08:33.876Z,21.69
2022-09-10T05:11:03.939Z,21.59
2022-09-10T05:13:31.761Z,21.63
2022-09-10T05:16:00.161Z,21.51
2022-09-10T05:18:29.646Z,21.65
2022-09-10T05:20:57.449Z,21.73
2022-09-10T05:23:24.876Z,21.62
2022-09-10T05:25:52.779Z,21.70
2022-09-10T05:28:20.923Z,21.69
2022-09-10T05:30:51.708Z,21.91
2022-09-10T05:33:20.583Z,21.74
2022-09-10T05:35:53.643Z,21.48
2022-09-10T05:38:21.344Z,21.49
2022-09-10T05:40:50.381Z,21.54
2022-09-10T05:43:17.796Z,21.55
2022-09-10T05:45:45.626Z,21.73
2022-09-10T05:48:13.404Z,21.85
2022-09-10T05:50:40.948Z,22.18
2022-09-10T05:53:10.168Z,21.94
2022-09-10T05:55:39.256Z,21.89
2022-09-10T05:58:06.707Z,21.93
2022-09-10T06:00:36.569Z,21.89
2022-09-10T06:03:05.493Z,21.87
2022-09-10T06:05:36.522Z,21.82
2022-09-10T06:08:08.559Z,21.57
2022-09-10T06:10:37.010Z,21.93
2022-09-10T06:13:05.192Z,21.92
2022-09-10T06:15:34.264Z,21.99
2022-09-10T06:18:01.925Z,21.87
2022-09-10T06:20:29.907Z,21.85
2022-09-10T06:22:57.253Z,22.07
2022-09-10T06:25:24.756Z,22.22
2022-09-10T06:27:52.698Z,22.01
2022-09-10T06:30:20.766Z,21.83
2022-09-10T06:32:48.029Z,22.15
2022-09-10T06:35:15.631Z,22.18
2022-09-10T06:37:43.494Z,22.17
2022-09-10T06:40:11.752Z,21.83
2022-09-10T06:42:41.123Z,22.23
2022-09-10T06:45:08.576Z,22.10
2022-09-10T06:50:25.531Z,21.97
2022-09-10T06:52:54.181Z,22.00
2022-09-10T06:55:21.726Z,22.18
2022-09-10T06:57:49.130Z,21.88
2022-09-10T07:00:16.918Z,21.82
2022-09-10T07:02:44.811Z,21.97
2022-09-10T07:05:12.666Z,21.71
2022-09-10T07:07:40.926Z,21.81
2022-09-10T07:10:08.416Z,21.59
2022-09-10T07:12:36.074Z,21.77
2022-09-10T07:15:03.308Z,22.04
2022-09-10T07:17:32.085Z,21.85
2022-09-10T07:20:00.296Z,21.99
2022-09-10T07:22:28.311Z,21.73
2022-09-10T07:24:55.461Z,21.96
2022-09-10T07:27:23.117Z,21.91
2022-09-10T07:29:52.111Z,21.86
2022-09-10T07:32:19.514Z,21.80
2022-09-10T07:34:49.429Z,21.94
2022-09-10T07:37:17.124Z,21.85
2022-09-10T07:39:46.073Z,22.13
2022-09-10T07:42:14.393Z,22.05
2022-09-10T07:44:41.692Z,22.09
2022-09-10T07:47:08.859Z,22.11
2022-09-10T07:49:36.295Z,22.03
2022-09-10T07:52:04.187Z,22.03
2022-09-10T07:54:31.560Z,22.23
2022-09-10T07:57:00.010Z,22.40
2022-09-10T07:59:27.483Z,22.46
2022-09-10T08:01:55.763Z,22.54
2022-09-10T08:04:23.605Z,22.57
2022-09-10T08:06:51.794Z,22.46
2022-09-10T08:09:22.216Z,22.55
2022-09-10T08:11:50.038Z,22.92
2022-09-10T08:14:17.462Z,22.74
2022-09-10T08:16:46.528Z,22.72
2022-09-10T08:19:15.863Z,22.94
2022-09-10T08:21:44.545Z,22.88
2022-09-10T08:24:13.280Z,22.77
2022-09-10T08:26:41.949Z,22.69
2022-09-10T08:29:09.208Z,22.82
2022-09-10T08:31:37.010Z,23.16
2022-09-10T08:34:05.555Z,23.30
2022-09-10T08:36:33.497Z,23.11
2022-09-10T08:39:06.283Z,22.83
2022-09-10T08:41:38.658Z,22.84
2022-09-10T08:44:09.383Z,23.00
2022-09-10T08:46:42.191Z,22.82
2022-09-10T08:49:28.482Z,23.18
2022-09-10T08:51:57.879Z,22.86
2022-09-10T08:54:27.058Z,22.63
2022-09-10T08:56:55.412Z,23.17
2022-09-10T08:59:29.224Z,22.85
2022-09-10T09:02:26.289Z,23.02
2022-09-10T09:05:12.866Z,23.02
2022-09-10T09:07:40.507Z,23.29
2022-09-10T09:10:17.235Z,23.33
2022-09-10T09:12:52.878Z,23.30
2022-09-10T09:15:27.495Z,23.54
2022-09-10T09:17:55.709Z,23.73
2022-09-10T09:20:24.809Z,23.69
2022-09-10T09:22:53.357Z,23.60
2022-09-10T09:25:30.610Z,24.00
2022-09-10T09:28:00.453Z,23.89
2022-09-10T09:30:35.957Z,23.82
2022-09-10T09:33:13.779Z,24.25
2022-09-10T09:35:49.092Z,24.37
2022-09-10T09:38:23.830Z,24.52
2022-09-10T09:40:52.470Z,24.38
2022-09-10T09:43:33.112Z,24.42
2022-09-10T09:46:00.468Z,24.30
2022-09-10T09:48:32.374Z,24.29
2022-09-10T09:51:00.427Z,24.77
2022-09-10T09:53:28.607Z,24.97
2022-09-10T09:55:59.149Z,25.39
2022-09-10T09:58:27.218Z,25.44
2022-09-10T10:00:54.589Z,25.42
2022-09-10T10:03:25.596Z,25.59
2022-09-10T10:06:08.791Z,25.61
2022-09-10T10:08:41.473Z,25.27
2022-09-10T10:11:09.074Z,25.51
2022-09-10T10:13:38.500Z,25.30
2022-09-10T10:16:21.622Z,24.86
2022-09-10T10:18:50.099Z,25.15
2022-09-10T10:21:22.432Z,25.11
2022-09-10T10:23:49.859Z,25.36
2022-09-10T10:26:17.147Z,25.27
2022-09-10T10:28:45.360Z,25.25
2022-09-10T10:31:12.904Z,25.41
2022-09-10T10:33:53.101Z,25.35
2022-09-10T10:36:20.845Z,25.42
2022-09-10T10:38:55.893Z,25.32
2022-09-10T10:41:23.225Z,25.87
2022-09-10T10:43:50.402Z,25.69
2022-09-10T10:46:21.510Z,25.91
2022-09-10T10:48:49.042Z,25.96
2022-09-10T10:51:22.461Z,26.24
2022-09-10T10:53:55.728Z,26.34
2022-09-10T10:56:22.928Z,26.65
2022-09-10T10:58:59.533Z,26.68
2022-09-10T11:01:27.518Z,26.77
2022-09-10T11:04:13.705Z,26.73
2022-09-10T11:06:42.004Z,26.76
2022-09-10T11:09:22.768Z,26.88
2022-09-10T11:11:52.717Z,27.11
2022-09-10T11:14:23.152Z,27.13
2022-09-10T11:16:55.405Z,27.15
2022-09-10T11:20:11.095Z,27.19
2022-09-10T11:22:47.953Z,27.39
2022-09-10T11:25:26.923Z,27.11
2022-09-10T11:28:20.060Z,26.86
2022-09-10T11:30:49.131Z,26.49
2022-09-10T11:33:28.289Z,26.57
2022-09-10T11:36:05.177Z,26.68
2022-09-10T11:38:35.298Z,26.81
2022-09-10T11:41:22.382Z,27.04
2022-09-10T11:43:50.517Z,27.18
2022-09-10T11:46:23.545Z,27.24
2022-09-10T11:48:52.297Z,27.05
2022-09-10T11:51:22.409Z,27.29
2022-09-10T11:53:50.137Z,27.39
2022-09-10T11:56:36.209Z,27.30
2022-09-10T11:59:12.800Z,27.21
2022-09-10T12:01:49.422Z,26.96
2022-09-10T12:04:26.701Z,26.81
2022-09-10T12:06:59.014Z,26.87
2022-09-10T12:09:45.852Z,27.30
2022-09-10T12:12:22.845Z,27.40
2022-09-10T12:14:50.262Z,27.11
2022-09-10T12:17:18.450Z,26.93
2022-09-10T12:19:46.388Z,27.16
2022-09-10T12:22:26.895Z,27.29
2022-09-10T12:24:55.526Z,27.32
2022-09-10T12:27:23.848Z,27.31
2022-09-10T12:29:50.996Z,27.20
2022-09-10T12:32:18.068Z,27.11
2022-09-10T12:34:48.452Z,27.16
2022-09-10T12:37:26.591Z,27.14
2022-09-10T12:40:13.442Z,27.15
2022-09-10T12:42:45.200Z,26.86
2022-09-10T12:45:12.627Z,26.90
2022-09-10T12:47:41.104Z,26.56
2022-09-10T12:50:22.561Z,26.82
2022-09-10T12:52:52.846Z,26.81
2022-09-10T12:55:29.151Z,26.85
2022-09-10T12:57:59.905Z,27.15
2022-09-10T13:00:28.250Z,26.96
2022-09-10T13:03:07.783Z,26.89
2022-09-10T13:05:44.073Z,26.92
2022-09-10T13:08:41.687Z,26.84
2022-09-10T13:11:19.338Z,26.67
2022-09-10T13:13:51.703Z,26.60
2022-09-10T13:16:19.843Z,26.48
2022-09-10T13:18:47.612Z,26.70
2022-09-10T13:21:24.147Z,26.48
2022-09-10T13:23:52.031Z,26.28
2022-09-10T13:26:31.493Z,26.79
2022-09-10T13:29:00.794Z,26.72
2022-09-10T13:31:32.696Z,26.63
2022-09-10T13:34:15.404Z,26.85
2022-09-10T13:36:57.389Z,26.98
2022-09-10T13:39:43.641Z,26.75
2022-09-10T13:42:14.347Z,26.65
2022-09-10T13:44:41.700Z,27.00
2022-09-10T13:47:13.993Z,26.66
2022-09-10T13:49:51.565Z,26.37
2022-09-10T13:52:19.091Z,26.56
2022-09-10T13:54:47.055Z,26.54
2022-09-10T13:57:27.768Z,26.68
2022-09-10T14:00:04.548Z,26.58
2022-09-10T14:02:41.540Z,26.40
2022-09-10T14:05:25.997Z,26.34
2022-09-10T14:07:54.075Z,26.18
2022-09-10T14:10:21.611Z,26.24
2022-09-10T14:12:49.516Z,26.25
2022-09-10T14:15:18.041Z,26.09
2022-09-10T14:17:47.836Z,26.23
2022-09-10T14:20:19.698Z,26.47
2022-09-10T14:22:47.120Z,26.51
2022-09-10T14:25:31.516Z,26.65
2022-09-10T14:28:17.820Z,26.61
2022-09-10T14:30:48.759Z,26.51
2022-09-10T14:33:35.660Z,26.75
2022-09-10T14:36:16.195Z,26.59
2022-09-10T14:38:45.402Z,26.77
2022-09-10T14:41:18.855Z,26.73
2022-09-10T14:43:46.249Z,26.82
2022-09-10T14:46:32.324Z,27.01
2022-09-10T14:49:00.314Z,26.72
2022-09-10T14:51:27.579Z,26.86
2022-09-10T14:53:55.381Z,26.67
2022-09-10T14:56:30.559Z,26.86
2022-09-10T14:58:59.300Z,26.79
2022-09-10T15:01:26.935Z,26.69
2022-09-10T15:03:54.146Z,26.47
2022-09-10T15:06:26.054Z,26.53
2022-09-10T15:08:57.755Z,26.40
2022-09-10T15:11:26.369Z,26.49
2022-09-10T15:13:55.802Z,26.51
2022-09-10T15:16:23.469Z,26.39
2022-09-10T15:18:50.618Z,26.42
2022-09-10T15:21:17.821Z,26.59
2022-09-10T15:23:48.437Z,26.14
2022-09-10T15:26:15.610Z,26.50
2022-09-10T15:28:42.731Z,26.20
2022-09-10T15:31:11.028Z,26.25
2022-09-10T15:33:38.307Z,26.32
2022-09-10T15:36:06.238Z,26.48
2022-09-10T15:38:33.780Z,26.32
2022-09-10T15:41:13.017Z,26.28
2022-09-10T15:43:42.849Z,26.31
2022-09-10T15:46:10.557Z,26.39
2022-09-10T15:48:37.774Z,26.10
2022-09-10T15:51:14.935Z,26.29
2022-09-10T15:53:42.448Z,26.06
2022-09-10T15:56:10.522Z,25.81
2022-09-10T15:58:37.769Z,25.88
2022-09-10T16:01:11.906Z,25.78
2022-09-10T16:03:44.058Z,26.04
2022-09-10T16:06:11.254Z,25.92
2022-09-10T16:08:38.441Z,26.05
2022-09-10T16:11:07.881Z,25.63
2022-09-10T16:13:35.592Z,25.61
2022-09-10T16:16:03.900Z,25.66
2022-09-10T16:18:32.191Z,25.67
2022-09-10T16:21:06.256Z,25.63
2022-09-10T16:23:34.378Z,25.64
2022-09-10T16:26:01.496Z,25.47
2022-09-10T16:28:28.639Z,25.55
2022-09-10T16:30:59.168Z,25.50
2022-09-10T16:33:26.387Z,25.10
2022-09-10T16:35:53.553Z,25.22
2022-09-10T16:38:22.070Z,25.35
2022-09-10T16:40:53.321Z,25.20
2022-09-10T16:43:20.983Z,25.39
2022-09-10T16:45:51.336Z,25.21
2022-09-10T16:48:18.489Z,25.31
2022-09-10T16:50:45.874Z,25.34
2022-09-10T16:53:13.268Z,25.26
2022-09-10T16:55:40.413Z,24.72
2022-09-10T16:58:07.904Z,25.14
2022-09-10T17:00:35.083Z,25.18
2022-09-10T17:03:02.583Z,25.02
2022-09-10T17:05:30.210Z,24.97
2022-09-10T17:07:57.524Z,25.10
2022-09-10T17:10:27.123Z,24.92
2022-09-10T17:12:54.787Z,24.91
2022-09-10T17:15:22.109Z,24.88
2022-09-10T17:17:49.483Z,24.92
2022-09-10T17:20:19.491Z,25.00
2022-09-10T17:22:46.818Z,24.78
2022-09-10T17:25:13.965Z,24.85
2022-09-10T17:27:41.381Z,24.75
2022-09-10T17:30:08.770Z,24.62
2022-09-10T17:32:35.966Z,24.56
2022-09-10T17:35:03.382Z,24.43
2022-09-10T17:37:30.981Z,24.51
2022-09-10T17:40:01.012Z,24.51
2022-09-10T17:42:28.515Z,24.52
2022-09-10T17:44:55.670Z,24.53
2022-09-10T17:47:23.148Z,24.26
2022-09-10T17:49:52.135Z,24.39
2022-09-10T17:52:19.309Z,24.43
2022-09-10T17:54:46.536Z,24.13
2022-09-10T17:57:16.709Z,24.19
2022-09-10T17:59:43.929Z,24.26
2022-09-10T18:02:18.498Z,24.21
2022-09-10T18:04:48.528Z,24.29
2022-09-10T18:07:15.713Z,24.19
2022-09-10T18:09:42.920Z,24.21
2022-09-10T18:12:11.388Z,24.29
2022-09-10T18:14:39.735Z,24.16
2022-09-10T18:17:08.010Z,24.18
2022-09-10T18:19:37.364Z,24.07
2022-09-10T18:22:07.291Z,23.98
2022-09-10T18:24:36.026Z,24.04
2022-09-10T18:27:06.103Z,24.02
2022-09-10T18:29:35.787Z,23.96
2022-09-10T18:32:03.281Z,23.85
2022-09-10T18:34:31.295Z,23.87
2022-09-10T18:36:59.952Z,23.79
2022-09-10T18:39:28.618Z,23.65
2022-09-10T18:41:57.558Z,23.71
2022-09-10T18:44:25.994Z,23.67
2022-09-10T18:46:56.796Z,23.65
2022-09-10T18:49:25.739Z,23.60
2022-09-10T18:51:53.886Z,23.52
2022-09-10T18:54:22.435Z,23.45
2022-09-10T18:56:51.500Z,23.53
2022-09-10T18:59:23.422Z,23.40
2022-09-10T19:01:52.089Z,23.15
2022-09-10T19:04:21.954Z,23.18
2022-09-10T19:06:49.906Z,23.02
2022-09-10T19:09:22.988Z,22.97
2022-09-10T19:11:53.406Z,22.81
2022-09-10T19:14:26.557Z,22.80
2022-09-10T19:16:54.230Z,22.83
2022-09-10T19:19:22.716Z,22.90
2022-09-10T19:21:54.610Z,22.81
2022-09-10T19:24:37.869Z,22.84
2022-09-10T19:27:11.519Z,22.88
2022-09-10T19:29:42.721Z,22.71
2022-09-10T19:32:11.668Z,22.63
2022-09-10T19:34:39.268Z,22.57
2022-09-10T19:37:07.432Z,22.51
2022-09-10T19:39:35.031Z,22.33
2022-09-10T19:42:02.594Z,22.32
2022-09-10T19:44:30.386Z,22.33
2022-09-10T19:46:58.993Z,22.34
2022-09-10T19:49:30.278Z,22.11
2022-09-10T19:51:57.987Z,22.20
2022-09-10T19:54:25.976Z,22.13
2022-09-10T19:56:53.390Z,22.08
2022-09-10T19:59:21.052Z,22.14
2022-09-10T20:01:48.819Z,22.15
2022-09-10T20:04:17.015Z,22.25
2022-09-10T20:06:46.211Z,22.16
2022-09-10T20:09:13.727Z,21.95
2022-09-10T20:11:41.950Z,21.96
2022-09-10T20:14:13.527Z,21.92
2022-09-10T20:16:44.930Z,22.02
2022-09-10T20:19:13.616Z,21.96
2022-09-10T20:21:42.537Z,21.87
2022-09-10T20:24:09.974Z,21.65
2022-09-10T20:26:38.305Z,21.74
2022-09-10T20:29:07.347Z,21.68
2022-09-10T20:31:35.598Z,21.64
2022-09-10T20:34:03.832Z,21.78
2022-09-10T20:36:31.704Z,21.74
2022-09-10T20:38:58.942Z,21.63
2022-09-10T20:41:30.399Z,21.66
2022-09-10T20:43:59.312Z,21.76
2022-09-10T20:46:27.487Z,21.68
2022-09-10T20:48:56.808Z,21.64
2022-09-10T20:51:24.318Z,21.58
2022-09-10T20:53:51.534Z,21.72
2022-09-10T20:56:19.049Z,21.69
2022-09-10T20:58:46.581Z,21.65
2022-09-10T21:01:16.575Z,21.54
2022-09-10T21:03:45.057Z,21.51
2022-09-10T21:06:13.507Z,21.54
2022-09-10T21:08:41.232Z,21.59
2022-09-10T21:11:09.882Z,21.52
2022-09-10T21:13:37.574Z,21.40
2022-09-10T21:16:09.024Z,21.50
2022-09-10T21:18:37.194Z,21.41
2022-09-10T21:21:05.123Z,21.33
2022-09-10T21:23:32.331Z,21.51
2022-09-10T21:25:59.783Z,21.45
2022-09-10T21:28:27.455Z,21.58
2022-09-10T21:30:54.783Z,21.50
2022-09-10T21:33:22.280Z,21.52
2022-09-10T21:35:50.936Z,21.44
2022-09-10T21:38:18.070Z,21.34
2022-09-10T21:40:45.562Z,21.46
2022-09-10T21:43:14.116Z,21.11
2022-09-10T21:45:41.282Z,21.34
2022-09-10T21:48:08.821Z,21.21
2022-09-10T21:50:40.302Z,21.21
2022-09-10T21:53:07.516Z,21.19
2022-09-10T21:58:40.866Z,21.03
2022-09-10T22:01:09.067Z,20.94
2022-09-10T22:03:36.753Z,20.87
2022-09-10T22:06:10.080Z,20.96
2022-09-10T22:08:38.119Z,20.80
2022-09-10T22:11:16.244Z,20.89
2022-09-10T22:13:44.037Z,20.93
2022-09-10T22:16:12.554Z,20.93
2022-09-10T22:18:41.578Z,20.93
2022-09-10T22:21:09.183Z,20.93
2022-09-10T22:23:37.983Z,20.75
2022-09-10T22:26:06.114Z,20.80
2022-09-10T22:28:34.925Z,20.75
2022-09-10T22:31:10.087Z,20.51
2022-09-10T22:33:38.389Z,20.49
2022-09-10T22:36:15.318Z,20.50
2022-09-10T22:38:43.091Z,20.50
2022-09-10T22:41:10.375Z,20.47
2022-09-10T22:43:38.451Z,20.56
2022-09-10T22:46:09.675Z,20.59
2022-09-10T22:48:40.954Z,20.62
2022-09-10T22:51:09.453Z,20.54
2022-09-10T22:53:36.721Z,20.56
2022-09-10T22:56:04.328Z,20.60
2022-09-10T22:58:32.953Z,20.42
2022-09-10T23:01:07.006Z,20.46
2022-09-10T23:03:34.578Z,20.47
2022-09-10T23:06:03.606Z,20.42
2022-09-10T23:08:32.609Z,20.52
2022-09-10T23:11:09.804Z,20.29
2022-09-10T23:13:37.163Z,20.31
2022-09-10T23:16:11.364Z,20.21
2022-09-10T23:18:40.022Z,20.20
2022-09-10T23:21:07.804Z,20.12
2022-09-10T23:23:35.095Z,20.16
2022-09-10T23:26:09.409Z,20.04
2022-09-10T23:28:37.063Z,20.12
2022-09-10T23:31:13.684Z,19.93
2022-09-10T23:33:43.562Z,19.94
2022-09-10T23:36:13.247Z,19.86
2022-09-10T23:38:41.449Z,19.81
2022-09-10T23:41:08.916Z,19.95
2022-09-10T23:43:36.099Z,19.81
2022-09-10T23:46:03.524Z,19.88
2022-09-10T23:48:30.789Z,19.82
2022-09-10T23:50:57.949Z,19.74
2022-09-10T23:53:25.991Z,19.73
2022-09-10T23:55:53.550Z,19.79
2022-09-10T23:58:21.527Z,19.66
